Terminal Aerodrome Forecast
Issued by NWS Portland, ME

Home | Current Version | Previous Version | Text Only | Print | Product List | Glossary On
Versions: 1 2 3 4 5 6 7 8 9 10 11 12 13 14 15 16 17 18 19 20 21 22 23 24
712
FTUS41 KGYX 202320
TAFCON
TAF
KCON 202320Z 2100/2124 26005KT P6SM OVC060
     FM210300 00000KT P6SM SKC
     FM211400 20006KT P6SM SKC WS020/24035KT
     FM211800 20011KT P6SM SCT250=

USA.gov is the U.S. government's official web portal to all federal, state and local government web resources and services.